マガダン の空港の天気 - METARとTAF

マガダン・ソコル空港 ( UHMM / GDX ) - ロシア マガダン
飛行場実況気象(Metar)
観測時間08/17 22:00 MAGT (08/17 11:00 UTC)
風向・風速東 3m/s
視程10km以上
天気現象
なし
気温11℃
湿度62%
気圧1022hPa
METARUHMM 171100Z 09003MPS 9999 NSC 11/04 Q1022 RMK QFE751
過去の天気等 Google飛行場航空写真 Wunderground天気予報

過去48時間のMETAR

飛行場予報(TAF)
発表時間: 8/17 21:45 MAGT (8/17 10:45 UTC)
予報対象時間: 17日23時 MAGT ~ 19日5時 MAGT
風向・風速東 3m/s 瞬間風速 8m/s
視程10km以上
少しの雲 雲底高度 1220m
18日11時 MAGT ~ 18日21時 MAGT に一時的に
風向・風速南西 3m/s 瞬間風速 10m/s
TAF UHMM 171045Z 1712/1818 09003G08MPS 9999 FEW040
TEMPO 1800/1810 22003G10MPS